createdAt,value
2023-01-22T00:00:00.315Z,100959.94
2023-01-22T00:01:02.204Z,100961.50
2023-01-22T00:01:43.283Z,100964.53
2023-01-22T00:02:23.215Z,100972.00
2023-01-22T00:03:03.234Z,100959.50
2023-01-22T00:03:46.598Z,100956.00
2023-01-22T00:04:27.248Z,100969.06
2023-01-22T00:05:07.187Z,100977.75
2023-01-22T00:05:47.279Z,100965.53
2023-01-22T00:06:30.195Z,100981.22
2023-01-22T00:07:11.371Z,100978.88
2023-01-22T00:07:52.169Z,100957.91
2023-01-22T00:08:32.260Z,100963.47
2023-01-22T00:09:12.210Z,100967.97
2023-01-22T00:09:52.682Z,100988.00
2023-01-22T00:10:33.199Z,100983.59
2023-01-22T00:11:14.238Z,100966.78
2023-01-22T00:11:57.187Z,100980.19
2023-01-22T00:12:37.266Z,100957.56
2023-01-22T00:13:17.160Z,100967.00
2023-01-22T00:13:57.228Z,100977.41
2023-01-22T00:14:37.202Z,100963.00
2023-01-22T00:15:17.204Z,100962.47
2023-01-22T00:15:57.227Z,100953.31
2023-01-22T00:16:37.242Z,100965.38
2023-01-22T00:17:17.196Z,100959.41
2023-01-22T00:17:57.255Z,100975.13
2023-01-22T00:18:37.176Z,100964.41
2023-01-22T00:19:18.244Z,100982.38
2023-01-22T00:19:58.164Z,100982.84
2023-01-22T00:20:39.314Z,100976.13
2023-01-22T00:21:20.159Z,100968.59
2023-01-22T00:22:00.202Z,100937.41
2023-01-22T00:22:40.175Z,100955.31
2023-01-22T00:23:21.235Z,100956.47
2023-01-22T00:24:01.186Z,100970.63
2023-01-22T00:24:41.337Z,100978.63
2023-01-22T00:25:21.156Z,100966.53
2023-01-22T00:26:11.150Z,100991.44
2023-01-22T00:26:52.158Z,100981.03
2023-01-22T00:27:33.204Z,100994.28
2023-01-22T00:28:14.172Z,100985.59
2023-01-22T00:28:54.219Z,100982.63
2023-01-22T00:29:34.134Z,100984.00
2023-01-22T00:30:15.656Z,100987.03
2023-01-22T00:31:07.319Z,100984.34
2023-01-22T00:31:48.335Z,100969.78
2023-01-22T00:32:28.157Z,100977.56
2023-01-22T00:33:08.228Z,100990.31
2023-01-22T00:33:48.195Z,100993.91
2023-01-22T00:34:28.196Z,100977.19
2023-01-22T00:35:08.165Z,100986.13
2023-01-22T00:35:48.201Z,100983.38
2023-01-22T00:36:30.156Z,100996.09
2023-01-22T00:37:10.211Z,100969.22
2023-01-22T00:37:50.137Z,101001.66
2023-01-22T00:38:30.210Z,100998.03
2023-01-22T00:39:10.188Z,100989.28
2023-01-22T00:39:50.193Z,100992.66
2023-01-22T00:40:31.148Z,100987.69
2023-01-22T00:41:13.211Z,101008.00
2023-01-22T00:41:53.151Z,100991.31
2023-01-22T00:42:33.255Z,101000.38
2023-01-22T00:43:13.159Z,101015.75
2023-01-22T00:43:53.218Z,101008.09
2023-01-22T00:44:34.418Z,101006.38
2023-01-22T00:45:15.272Z,100999.13
2023-01-22T00:45:55.140Z,100998.97
2023-01-22T00:46:36.230Z,101013.22
2023-01-22T00:47:16.142Z,101015.03
2023-01-22T00:47:56.200Z,101015.81
2023-01-22T00:48:36.126Z,101003.59
2023-01-22T00:49:16.242Z,101000.84
2023-01-22T00:49:56.194Z,101025.56
2023-01-22T00:50:36.187Z,101026.84
2023-01-22T00:51:16.189Z,100998.59
2023-01-22T00:51:56.185Z,101022.44
2023-01-22T00:52:36.120Z,101000.28
2023-01-22T00:53:16.182Z,100990.69
2023-01-22T00:53:56.142Z,100994.13
2023-01-22T00:54:38.425Z,101015.94
2023-01-22T00:55:18.145Z,101013.66
2023-01-22T00:56:01.206Z,101002.09
2023-01-22T00:56:41.156Z,101005.63
2023-01-22T00:57:21.963Z,101000.22
2023-01-22T00:58:02.142Z,100998.25
2023-01-22T00:58:42.176Z,100996.38
2023-01-22T00:59:22.131Z,101013.56
2023-01-22T01:00:02.285Z,101009.22
2023-01-22T01:00:42.186Z,101000.28
2023-01-22T01:01:23.153Z,101009.72
2023-01-22T01:02:03.165Z,101011.22
2023-01-22T01:03:01.861Z,101009.63
2023-01-22T01:03:50.120Z,101009.00
2023-01-22T01:04:24.215Z,100974.38
2023-01-22T01:05:11.114Z,101022.00
2023-01-22T01:05:52.138Z,101023.75
2023-01-22T01:06:46.115Z,100994.84
2023-01-22T01:07:40.122Z,101014.78
2023-01-22T01:08:35.102Z,101009.56
2023-01-22T01:09:29.123Z,101020.13
2023-01-22T01:10:24.114Z,101006.81
2023-01-22T01:11:15.153Z,101021.72
2023-01-22T01:11:49.228Z,101018.09
2023-01-22T01:12:36.121Z,101007.81
2023-01-22T01:13:10.414Z,101025.94
2023-01-22T01:13:58.121Z,101020.69
2023-01-22T01:14:32.177Z,101019.50
2023-01-22T01:15:19.098Z,101011.91
2023-01-22T01:15:53.172Z,101023.81
2023-01-22T01:16:41.129Z,101023.22
2023-01-22T01:17:15.168Z,101017.91
2023-01-22T01:18:02.121Z,101010.28
2023-01-22T01:18:37.155Z,101025.16
2023-01-22T01:19:25.091Z,101030.53
2023-01-22T01:19:59.140Z,101016.63
2023-01-22T01:20:47.086Z,101002.78
2023-01-22T01:21:21.186Z,101018.13
2023-01-22T01:22:01.144Z,101031.59
2023-01-22T01:22:41.158Z,100994.63
2023-01-22T01:23:22.106Z,101027.91
2023-01-22T01:24:04.193Z,101035.84
2023-01-22T01:24:44.092Z,101012.75
2023-01-22T01:25:24.136Z,101031.47
2023-01-22T01:26:04.084Z,101013.44
2023-01-22T01:26:46.152Z,101032.22
2023-01-22T01:27:27.120Z,101030.50
2023-01-22T01:28:07.124Z,101005.03
2023-01-22T01:28:48.091Z,101012.69
2023-01-22T01:29:28.144Z,101014.03
2023-01-22T01:30:09.108Z,101030.13
2023-01-22T01:30:49.190Z,101015.53
2023-01-22T01:31:32.146Z,101032.88
2023-01-22T01:32:13.135Z,101011.34
2023-01-22T01:32:53.110Z,101017.13
2023-01-22T01:33:33.149Z,101017.84
2023-01-22T01:34:13.075Z,101023.13
2023-01-22T01:34:53.149Z,101020.13
2023-01-22T01:35:33.107Z,101032.97
2023-01-22T01:36:47.711Z,101007.69
2023-01-22T01:37:29.099Z,101033.97
2023-01-22T01:38:10.102Z,101023.25
2023-01-22T01:38:44.199Z,101008.88
2023-01-22T01:39:31.078Z,101016.63
2023-01-22T01:40:05.113Z,101015.47
2023-01-22T01:40:52.066Z,101004.19
2023-01-22T01:41:30.192Z,101025.72
2023-01-22T01:42:18.090Z,101026.50
2023-01-22T01:42:53.133Z,101021.22
2023-01-22T01:43:34.111Z,101017.75
2023-01-22T01:44:30.238Z,101021.84
2023-01-22T01:45:31.076Z,101030.59
2023-01-22T01:46:18.225Z,101031.47
2023-01-22T01:47:12.058Z,101005.47
2023-01-22T01:47:53.164Z,101029.88
2023-01-22T01:48:50.111Z,101026.03
2023-01-22T01:49:36.180Z,101027.13
2023-01-22T01:50:17.293Z,101024.75
2023-01-22T01:51:23.276Z,101015.09
2023-01-22T01:52:08.065Z,101025.41
2023-01-22T01:52:48.132Z,101007.06
2023-01-22T01:53:28.058Z,100996.81
2023-01-22T01:54:11.104Z,101017.44
2023-01-22T01:54:46.190Z,101012.56
2023-01-22T01:55:38.081Z,101014.28
2023-01-22T01:56:19.157Z,101017.75
2023-01-22T01:57:14.058Z,101014.13
2023-01-22T01:57:48.136Z,101026.56
2023-01-22T01:58:40.070Z,101004.84
2023-01-22T01:59:25.101Z,101022.03
2023-01-22T02:00:23.056Z,101030.13
2023-01-22T02:01:26.070Z,101018.53
2023-01-22T02:02:20.093Z,101027.31
2023-01-22T02:03:14.078Z,101027.22
2023-01-22T02:04:09.066Z,101022.47
2023-01-22T02:04:50.076Z,101010.50
2023-01-22T02:05:31.125Z,101027.06
2023-01-22T02:06:12.033Z,101029.47
2023-01-22T02:06:52.136Z,101025.00
2023-01-22T02:07:32.063Z,101030.19
2023-01-22T02:08:14.117Z,101002.66
2023-01-22T02:08:57.075Z,101028.72
2023-01-22T02:09:37.128Z,101028.63
2023-01-22T02:10:18.406Z,101010.91
2023-01-22T02:11:00.119Z,101030.97
2023-01-22T02:11:41.062Z,101010.19
2023-01-22T02:12:21.088Z,101029.25
2023-01-22T02:13:05.073Z,101030.84
2023-01-22T02:13:51.536Z,101006.88
2023-01-22T02:14:38.048Z,101029.25
2023-01-22T02:15:18.100Z,101024.06
2023-01-22T02:15:58.112Z,101013.81
2023-01-22T02:16:38.203Z,101018.84
2023-01-22T02:17:21.062Z,101032.88
2023-01-22T02:18:01.103Z,101017.44
2023-01-22T02:18:41.040Z,101025.00
2023-01-22T02:19:21.089Z,101024.31
2023-01-22T02:20:01.031Z,101034.22
2023-01-22T02:20:45.130Z,101011.59
2023-01-22T02:21:47.084Z,101038.88
2023-01-22T02:22:37.177Z,101014.78
2023-01-22T02:23:17.037Z,101022.41
2023-01-22T02:23:57.091Z,101035.56
2023-01-22T02:24:38.030Z,101048.50
2023-01-22T02:25:18.061Z,101045.72
2023-01-22T02:25:59.022Z,101045.00
2023-01-22T02:26:39.078Z,101031.84
2023-01-22T02:27:19.086Z,101030.00
2023-01-22T02:27:59.108Z,101050.50
2023-01-22T02:28:39.035Z,101050.84
2023-01-22T02:29:21.157Z,101045.31
2023-01-22T02:30:02.021Z,101041.69
2023-01-22T02:30:42.176Z,101045.97
2023-01-22T02:31:23.049Z,101048.00
2023-01-22T02:32:03.064Z,101041.06
2023-01-22T02:32:43.047Z,101054.31
2023-01-22T02:33:24.125Z,101058.72
2023-01-22T02:34:05.031Z,101044.31
2023-01-22T02:34:45.082Z,101065.03
2023-01-22T02:35:25.025Z,101058.72
2023-01-22T02:36:05.097Z,101046.66
2023-01-22T02:36:47.022Z,101042.88
2023-01-22T02:37:27.059Z,101059.81
2023-01-22T02:38:08.042Z,101039.66
2023-01-22T02:38:48.054Z,101047.38
2023-01-22T02:39:28.053Z,101047.47
2023-01-22T02:40:08.094Z,101060.31
2023-01-22T02:40:55.021Z,101058.41
2023-01-22T02:41:35.056Z,101047.91
2023-01-22T02:42:16.014Z,101053.06
2023-01-22T02:42:56.064Z,101060.78
2023-01-22T02:43:36.024Z,101032.97
2023-01-22T02:44:16.065Z,101040.16
2023-01-22T02:44:58.994Z,101051.94
2023-01-22T02:45:39.074Z,101060.31
2023-01-22T02:46:20.003Z,101056.03
2023-01-22T02:47:00.089Z,101043.06
2023-01-22T02:47:43.014Z,101054.09
2023-01-22T02:48:23.070Z,101061.91
2023-01-22T02:49:03.032Z,101040.91
2023-01-22T02:49:43.081Z,101048.50
2023-01-22T02:50:24.011Z,101061.63
2023-01-22T02:51:04.112Z,101063.31
2023-01-22T02:51:44.010Z,101059.81
2023-01-22T02:52:24.049Z,101058.91
2023-01-22T02:53:04.025Z,101029.13
2023-01-22T02:53:44.068Z,101061.41
2023-01-22T02:54:25.086Z,101053.59
2023-01-22T02:55:07.109Z,101062.44
2023-01-22T02:55:47.997Z,101064.56
2023-01-22T02:56:29.168Z,101044.56
2023-01-22T02:57:09.015Z,101043.19
2023-01-22T02:57:49.047Z,101060.69
2023-01-22T02:58:30.004Z,101077.31
2023-01-22T02:59:11.036Z,101054.75
2023-01-22T02:59:51.025Z,101073.47
2023-01-22T03:00:31.072Z,101077.00
2023-01-22T03:01:31.014Z,101077.16
2023-01-22T03:02:11.122Z,101072.75
2023-01-22T03:02:52.004Z,101063.13
2023-01-22T03:03:32.062Z,101055.81
2023-01-22T03:04:19.008Z,101068.03
2023-01-22T03:05:11.008Z,101078.50
2023-01-22T03:06:06.015Z,101060.94
2023-01-22T03:06:59.998Z,101061.56
2023-01-22T03:07:53.999Z,101052.25
2023-01-22T03:08:47.992Z,101073.38
2023-01-22T03:09:41.994Z,101074.16
2023-01-22T03:10:29.007Z,101052.50
2023-01-22T03:11:06.131Z,101062.97
2023-01-22T03:11:53.971Z,101057.59
2023-01-22T03:12:28.027Z,101077.47
2023-01-22T03:13:33.994Z,101048.75
2023-01-22T03:14:26.673Z,101079.91
2023-01-22T03:15:34.001Z,101052.72
2023-01-22T03:16:29.644Z,101067.53
2023-01-22T03:17:35.992Z,101062.25
2023-01-22T03:18:28.696Z,101082.19
2023-01-22T03:19:35.002Z,101075.09
2023-01-22T03:20:27.638Z,101071.47
2023-01-22T03:21:25.002Z,101075.34
2023-01-22T03:22:05.019Z,101060.53
2023-01-22T03:22:44.986Z,101065.66
2023-01-22T03:23:28.063Z,101059.28
2023-01-22T03:24:08.009Z,101076.63
2023-01-22T03:24:51.142Z,101050.59
2023-01-22T03:25:31.994Z,101062.03
2023-01-22T03:26:13.048Z,101081.88
2023-01-22T03:26:53.002Z,101070.06
2023-01-22T03:27:36.731Z,101083.78
2023-01-22T03:28:25.017Z,101070.94
2023-01-22T03:29:05.035Z,101057.84
2023-01-22T03:29:45.961Z,101071.81
2023-01-22T03:30:26.021Z,101084.56
2023-01-22T03:31:06.000Z,101093.88
2023-01-22T03:31:48.393Z,101087.72
2023-01-22T03:32:28.991Z,101064.06
2023-01-22T03:33:09.020Z,101073.69
2023-01-22T03:33:49.975Z,101064.81
2023-01-22T03:34:32.015Z,101075.03
2023-01-22T03:35:11.967Z,101085.44
2023-01-22T03:35:52.024Z,101086.38
2023-01-22T03:36:31.954Z,101061.09
2023-01-22T03:37:13.008Z,101089.94
2023-01-22T03:37:54.957Z,101091.97
2023-01-22T03:38:35.028Z,101077.06
2023-01-22T03:39:14.967Z,101081.56
2023-01-22T03:40:08.979Z,101097.31
2023-01-22T03:41:02.968Z,101078.75
2023-01-22T03:41:56.954Z,101091.81
2023-01-22T03:42:50.955Z,101068.81
2023-01-22T03:43:30.976Z,101079.06
2023-01-22T03:44:14.162Z,101096.41
2023-01-22T03:44:54.957Z,101081.00
2023-01-22T03:45:35.038Z,101088.16
2023-01-22T03:46:21.971Z,101096.53
2023-01-22T03:47:02.091Z,101090.41
2023-01-22T03:47:41.950Z,101085.41
2023-01-22T03:48:21.997Z,101089.25
2023-01-22T03:49:02.972Z,101099.97
2023-01-22T03:49:42.986Z,101098.34
2023-01-22T03:50:22.942Z,101087.66
2023-01-22T03:51:03.009Z,101107.16
2023-01-22T03:51:43.976Z,101112.47
2023-01-22T03:52:24.011Z,101078.53
2023-01-22T03:53:04.956Z,101107.66
2023-01-22T03:53:46.002Z,101094.44
2023-01-22T03:54:25.992Z,101116.97
2023-01-22T03:55:05.986Z,101101.69
2023-01-22T03:55:45.946Z,101096.03
2023-01-22T03:56:28.999Z,101125.09
2023-01-22T03:57:08.942Z,101096.88
2023-01-22T03:57:48.981Z,101115.91
2023-01-22T03:58:28.942Z,101094.06
2023-01-22T03:59:08.987Z,101099.19
2023-01-22T03:59:48.958Z,101089.50
2023-01-22T04:00:29.314Z,101116.19
2023-01-22T04:01:12.989Z,101109.94
2023-01-22T04:01:53.697Z,101094.72
2023-01-22T04:02:34.975Z,101076.78
2023-01-22T04:03:14.979Z,101091.75
2023-01-22T04:03:55.923Z,101101.13
2023-01-22T04:04:35.991Z,101101.13
2023-01-22T04:05:16.959Z,101102.03
2023-01-22T04:06:00.112Z,101106.13
2023-01-22T04:06:39.932Z,101102.81
2023-01-22T04:07:20.062Z,101091.22
2023-01-22T04:07:59.926Z,101102.63
2023-01-22T04:08:41.998Z,101110.69
2023-01-22T04:09:22.927Z,101095.41
2023-01-22T04:10:03.027Z,101086.66
2023-01-22T04:10:42.947Z,101103.53
2023-01-22T04:11:23.064Z,101120.31
2023-01-22T04:12:02.935Z,101121.09
2023-01-22T04:12:42.974Z,101096.19
2023-01-22T04:13:22.917Z,101113.63
2023-01-22T04:14:03.015Z,101117.22
2023-01-22T04:14:42.913Z,101112.91
2023-01-22T04:15:22.985Z,101118.81
2023-01-22T04:16:02.943Z,101124.25
2023-01-22T04:16:43.141Z,101102.34
2023-01-22T04:17:23.685Z,101123.50
2023-01-22T04:18:05.020Z,101127.72
2023-01-22T04:18:45.927Z,101120.94
2023-01-22T04:19:25.966Z,101090.69
2023-01-22T04:20:05.921Z,101112.34
2023-01-22T04:20:47.011Z,101129.13
2023-01-22T04:21:26.963Z,101123.75
2023-01-22T04:22:07.001Z,101115.69
2023-01-22T04:22:46.911Z,101111.78
2023-01-22T04:23:27.955Z,101130.72
2023-01-22T04:24:07.937Z,101110.63
2023-01-22T04:24:47.993Z,101137.66
2023-01-22T04:25:27.926Z,101095.84
2023-01-22T04:26:08.042Z,101128.91
2023-01-22T04:26:47.966Z,101110.63
2023-01-22T04:27:31.044Z,101117.50
2023-01-22T04:28:12.891Z,101105.50
2023-01-22T04:28:53.029Z,101122.19
2023-01-22T04:29:32.892Z,101113.22
2023-01-22T04:30:13.942Z,101124.41
2023-01-22T04:30:57.017Z,101107.44
2023-01-22T04:31:38.014Z,101109.13
2023-01-22T04:32:17.932Z,101106.13
2023-01-22T04:32:57.964Z,101111.28
2023-01-22T04:33:38.905Z,101111.63
2023-01-22T04:34:19.020Z,101120.47
2023-01-22T04:34:58.893Z,101118.72
2023-01-22T04:35:38.976Z,101125.22
2023-01-22T04:36:19.898Z,101126.22
2023-01-22T04:36:59.958Z,101116.44
2023-01-22T04:37:39.943Z,101122.03
2023-01-22T04:38:20.986Z,101108.25
2023-01-22T04:39:00.903Z,101122.19
2023-01-22T04:39:40.956Z,101125.03
2023-01-22T04:40:21.897Z,101130.28
2023-01-22T04:41:01.955Z,101110.00
2023-01-22T04:41:41.893Z,101103.16
2023-01-22T04:42:21.952Z,101108.03
2023-01-22T04:43:01.911Z,101110.00
2023-01-22T04:43:41.972Z,101123.00
2023-01-22T04:44:22.897Z,101098.34
2023-01-22T04:45:02.958Z,101096.72
2023-01-22T04:45:43.953Z,101092.56
2023-01-22T04:46:24.025Z,101101.81
2023-01-22T04:47:03.896Z,101111.59
2023-01-22T04:47:54.949Z,101125.03
2023-01-22T04:48:35.943Z,101124.59
2023-01-22T04:49:15.936Z,101105.34
2023-01-22T04:49:56.883Z,101110.56
2023-01-22T04:50:38.961Z,101110.16
2023-01-22T04:51:18.938Z,101111.28
2023-01-22T04:51:58.955Z,101094.72
2023-01-22T04:52:39.889Z,101102.66
2023-01-22T04:53:19.933Z,101113.88
2023-01-22T04:53:59.946Z,101103.47
2023-01-22T04:54:39.941Z,101091.25
2023-01-22T04:55:19.878Z,101105.94
2023-01-22T04:55:59.930Z,101121.63
2023-01-22T04:56:40.900Z,101093.22
2023-01-22T04:57:20.957Z,101102.84
2023-01-22T04:58:05.902Z,101112.28
2023-01-22T04:58:45.952Z,101098.25
2023-01-22T04:59:25.935Z,101106.94
2023-01-22T05:00:05.985Z,101110.25
2023-01-22T05:00:46.869Z,101117.50
2023-01-22T05:01:26.945Z,101124.78
2023-01-22T05:02:06.903Z,101128.03
2023-01-22T05:02:47.981Z,101121.72
2023-01-22T05:03:28.009Z,101122.31
2023-01-22T05:04:10.965Z,101116.00
2023-01-22T05:04:51.895Z,101100.56
2023-01-22T05:05:32.928Z,101114.19
2023-01-22T05:06:13.876Z,101104.97
2023-01-22T05:07:07.866Z,101127.28
2023-01-22T05:08:01.862Z,101116.75
2023-01-22T05:08:55.862Z,101124.19
2023-01-22T05:09:49.874Z,101107.41
2023-01-22T05:10:30.864Z,101125.22
2023-01-22T05:11:10.931Z,101127.38
2023-01-22T05:11:50.912Z,101133.25
2023-01-22T05:12:30.946Z,101114.81
2023-01-22T05:13:12.879Z,101131.56
2023-01-22T05:13:52.921Z,101106.69
2023-01-22T05:14:32.852Z,101124.50
2023-01-22T05:15:23.502Z,101126.94
2023-01-22T05:16:02.962Z,101114.63
2023-01-22T05:16:49.873Z,101146.47
2023-01-22T05:17:23.925Z,101128.75
2023-01-22T05:18:10.863Z,101140.75
2023-01-22T05:18:44.911Z,101138.09
2023-01-22T05:19:31.865Z,101120.47
2023-01-22T05:20:05.903Z,101125.66
2023-01-22T05:20:45.870Z,101141.97
2023-01-22T05:21:25.972Z,101133.38
2023-01-22T05:22:06.848Z,101127.56
2023-01-22T05:22:46.925Z,101134.47
2023-01-22T05:23:26.858Z,101142.50
2023-01-22T05:24:06.925Z,101144.91
2023-01-22T05:24:46.861Z,101140.47
2023-01-22T05:25:26.893Z,101126.41
2023-01-22T05:26:07.884Z,101100.88
2023-01-22T05:26:47.893Z,101127.84
2023-01-22T05:27:27.856Z,101126.69
2023-01-22T05:28:07.898Z,101143.75
2023-01-22T05:28:47.828Z,101143.63
2023-01-22T05:29:28.003Z,101135.03
2023-01-22T05:30:08.852Z,101138.41
2023-01-22T05:30:49.060Z,101158.09
2023-01-22T05:31:29.958Z,101146.44
2023-01-22T05:32:09.931Z,101160.25
2023-01-22T05:32:49.836Z,101152.13
2023-01-22T05:33:29.945Z,101149.94
2023-01-22T05:34:10.834Z,101142.19
2023-01-22T05:34:50.948Z,101161.41
2023-01-22T05:35:30.845Z,101135.25
2023-01-22T05:36:14.821Z,101166.59
2023-01-22T05:36:55.869Z,101131.91
2023-01-22T05:37:36.886Z,101164.22
2023-01-22T05:38:17.865Z,101166.91
2023-01-22T05:38:57.959Z,101150.44
2023-01-22T05:39:37.858Z,101173.16
2023-01-22T05:40:19.205Z,101165.19
2023-01-22T05:40:58.839Z,101162.59
2023-01-22T05:41:38.889Z,101167.66
2023-01-22T05:42:22.861Z,101174.75
2023-01-22T05:43:02.897Z,101167.13
2023-01-22T05:43:45.845Z,101185.47
2023-01-22T05:44:26.193Z,101184.69
2023-01-22T05:45:05.840Z,101171.72
2023-01-22T05:45:45.896Z,101167.38
2023-01-22T05:46:26.910Z,101173.59
2023-01-22T05:47:06.884Z,101178.66
2023-01-22T05:47:46.833Z,101179.63
2023-01-22T05:48:26.868Z,101170.13
2023-01-22T05:49:06.837Z,101162.38
2023-01-22T05:49:46.888Z,101175.34
2023-01-22T05:50:28.831Z,101179.88
2023-01-22T05:51:10.948Z,101170.94
2023-01-22T05:51:50.830Z,101162.16
2023-01-22T05:52:30.887Z,101172.56
2023-01-22T05:53:10.838Z,101185.59
2023-01-22T05:53:51.864Z,101156.94
2023-01-22T05:54:32.813Z,101157.84
2023-01-22T05:55:14.995Z,101171.59
2023-01-22T05:55:54.833Z,101174.84
2023-01-22T05:56:34.911Z,101163.47
2023-01-22T05:57:14.847Z,101185.25
2023-01-22T05:57:54.880Z,101185.59
2023-01-22T05:58:38.848Z,101164.75
2023-01-22T05:59:18.871Z,101170.75
2023-01-22T05:59:58.810Z,101156.06
2023-01-22T06:00:38.865Z,101134.81
2023-01-22T06:01:19.798Z,101176.34
2023-01-22T06:02:14.863Z,101162.31
2023-01-22T06:03:11.823Z,101162.81
2023-01-22T06:03:59.916Z,101173.97
2023-01-22T06:04:33.880Z,101155.06
2023-01-22T06:05:20.843Z,101178.50
2023-01-22T06:05:54.857Z,101171.78
2023-01-22T06:06:41.815Z,101185.38
2023-01-22T06:07:15.902Z,101171.25
2023-01-22T06:08:02.815Z,101164.47
2023-01-22T06:08:36.935Z,101174.88
2023-01-22T06:09:23.841Z,101178.00
2023-01-22T06:09:57.860Z,101190.16
2023-01-22T06:10:44.828Z,101186.69
2023-01-22T06:11:21.939Z,101181.38
2023-01-22T06:12:08.798Z,101190.31
2023-01-22T06:12:42.927Z,101196.59
2023-01-22T06:13:29.807Z,101161.22
2023-01-22T06:14:04.123Z,101192.38
2023-01-22T06:14:43.829Z,101195.72
2023-01-22T06:15:23.880Z,101179.28
2023-01-22T06:16:04.882Z,101176.56
2023-01-22T06:16:44.875Z,101170.13
2023-01-22T06:17:24.814Z,101188.50
2023-01-22T06:18:09.247Z,101198.34
2023-01-22T06:18:48.795Z,101199.22
2023-01-22T06:19:28.828Z,101201.66
2023-01-22T06:20:09.806Z,101204.97
2023-01-22T06:20:49.827Z,101206.72
2023-01-22T06:21:29.812Z,101192.19
2023-01-22T06:22:09.923Z,101187.00
2023-01-22T06:22:49.800Z,101208.59
2023-01-22T06:23:29.871Z,101210.34
2023-01-22T06:24:10.805Z,101204.28
2023-01-22T06:24:50.858Z,101213.09
2023-01-22T06:25:31.826Z,101199.13
2023-01-22T06:26:11.863Z,101204.19
2023-01-22T06:26:51.783Z,101184.44
2023-01-22T06:27:31.820Z,101205.06
2023-01-22T06:28:11.808Z,101196.38
2023-01-22T06:28:52.309Z,101203.00
2023-01-22T06:29:32.974Z,101204.25
2023-01-22T06:30:13.836Z,101202.81
2023-01-22T06:30:54.881Z,101221.63
2023-01-22T06:31:35.927Z,101221.69
2023-01-22T06:32:16.772Z,101205.06
2023-01-22T06:32:59.826Z,101231.09
2023-01-22T06:33:44.790Z,101231.09
2023-01-22T06:34:24.964Z,101209.31
2023-01-22T06:35:04.788Z,101218.44
2023-01-22T06:35:44.856Z,101212.91
2023-01-22T06:36:24.813Z,101224.88
2023-01-22T06:37:04.852Z,101214.16
2023-01-22T06:37:44.779Z,101204.44
2023-01-22T06:38:24.847Z,101218.56
2023-01-22T06:39:04.762Z,101222.41
2023-01-22T06:39:44.867Z,101211.63
2023-01-22T06:40:25.773Z,101202.31
2023-01-22T06:41:06.939Z,101219.22
2023-01-22T06:41:46.802Z,101209.56
2023-01-22T06:42:26.829Z,101224.97
2023-01-22T06:43:11.802Z,101209.31
2023-01-22T06:43:51.844Z,101217.72
2023-01-22T06:44:31.777Z,101210.91
2023-01-22T06:45:12.815Z,101205.44
2023-01-22T06:45:52.762Z,101214.91
2023-01-22T06:46:32.832Z,101210.78
2023-01-22T06:47:12.777Z,101222.16
2023-01-22T06:47:53.828Z,101215.69
2023-01-22T06:48:33.774Z,101198.47
2023-01-22T06:49:16.856Z,101211.38
2023-01-22T06:49:56.768Z,101210.28
2023-01-22T06:50:36.833Z,101205.72
2023-01-22T06:51:17.811Z,101210.53
2023-01-22T06:51:57.807Z,101220.09
2023-01-22T06:52:37.771Z,101212.06
2023-01-22T06:53:17.856Z,101227.88
2023-01-22T06:53:57.771Z,101229.44
2023-01-22T06:54:37.819Z,101225.19
2023-01-22T06:55:17.776Z,101228.88
2023-01-22T06:55:57.830Z,101206.78
2023-01-22T06:56:38.767Z,101231.19
2023-01-22T06:57:18.874Z,101227.63
2023-01-22T06:58:01.778Z,101234.38
2023-01-22T06:58:41.848Z,101214.53
2023-01-22T06:59:21.773Z,101218.94
2023-01-22T07:00:04.676Z,101205.72
2023-01-22T07:00:44.767Z,101228.72
2023-01-22T07:01:25.956Z,101227.63
2023-01-22T07:02:05.756Z,101235.91
2023-01-22T07:02:45.807Z,101214.13
2023-01-22T07:03:25.813Z,101243.66
2023-01-22T07:04:06.801Z,101232.94
2023-01-22T07:04:46.742Z,101209.47
2023-01-22T07:05:27.878Z,101239.88
2023-01-22T07:06:10.779Z,101240.72
2023-01-22T07:06:50.860Z,101247.97
2023-01-22T07:07:30.770Z,101214.53
2023-01-22T07:08:10.833Z,101213.66
2023-01-22T07:08:51.782Z,101219.97
2023-01-22T07:09:31.814Z,101220.84
2023-01-22T07:10:12.785Z,101238.34
2023-01-22T07:10:52.783Z,101221.03
2023-01-22T07:11:32.745Z,101237.28
2023-01-22T07:12:12.780Z,101232.03
2023-01-22T07:12:52.729Z,101250.88
2023-01-22T07:13:32.792Z,101229.03
2023-01-22T07:14:12.850Z,101234.59
2023-01-22T07:14:52.817Z,101254.41
2023-01-22T07:15:33.746Z,101219.47
2023-01-22T07:16:14.857Z,101255.22
2023-01-22T07:16:54.742Z,101247.25
2023-01-22T07:17:34.939Z,101234.63
2023-01-22T07:18:16.760Z,101254.84
2023-01-22T07:18:56.791Z,101239.88
2023-01-22T07:19:36.746Z,101256.97
2023-01-22T07:20:19.113Z,101251.88
2023-01-22T07:20:59.739Z,101231.47
2023-01-22T07:21:39.808Z,101218.00
2023-01-22T07:22:19.733Z,101224.84
2023-01-22T07:23:00.207Z,101244.28
2023-01-22T07:23:41.730Z,101238.13
2023-01-22T07:24:23.119Z,101239.00
2023-01-22T07:25:02.760Z,101240.22
2023-01-22T07:25:44.598Z,101228.88
2023-01-22T07:26:24.894Z,101234.06
2023-01-22T07:27:04.802Z,101255.84
2023-01-22T07:27:44.739Z,101235.81
2023-01-22T07:28:24.793Z,101254.03
2023-01-22T07:29:04.726Z,101240.91
2023-01-22T07:29:44.826Z,101258.41
2023-01-22T07:30:24.783Z,101256.66
2023-01-22T07:31:05.213Z,101241.31
2023-01-22T07:31:44.761Z,101244.06
2023-01-22T07:32:25.833Z,101237.19
2023-01-22T07:33:09.731Z,101253.63
2023-01-22T07:33:50.055Z,101241.81
2023-01-22T07:34:29.729Z,101233.94
2023-01-22T07:35:09.798Z,101269.91
2023-01-22T07:35:49.737Z,101261.16
2023-01-22T07:36:29.762Z,101250.13
2023-01-22T07:37:10.722Z,101270.19
2023-01-22T07:37:57.762Z,101264.16
2023-01-22T07:38:38.706Z,101268.94
2023-01-22T07:39:18.806Z,101244.56
2023-01-22T07:39:58.747Z,101274.00
2023-01-22T07:40:38.815Z,101264.59
2023-01-22T07:41:25.778Z,101226.38
2023-01-22T07:42:06.770Z,101252.00
2023-01-22T07:42:46.708Z,101248.00
2023-01-22T07:43:26.770Z,101286.44
2023-01-22T07:44:07.725Z,101277.56
2023-01-22T07:44:47.746Z,101272.09
2023-01-22T07:45:30.730Z,101265.13
2023-01-22T07:46:11.899Z,101253.56
2023-01-22T07:46:51.786Z,101272.03
2023-01-22T07:47:31.773Z,101250.31
2023-01-22T07:48:14.738Z,101248.56
2023-01-22T07:48:54.758Z,101251.44
2023-01-22T07:49:34.706Z,101277.59
2023-01-22T07:50:15.985Z,101267.81
2023-01-22T07:50:55.741Z,101272.09
2023-01-22T07:51:35.823Z,101285.94
2023-01-22T07:52:16.717Z,101272.09
2023-01-22T07:52:56.938Z,101277.34
2023-01-22T07:53:36.725Z,101281.94
2023-01-22T07:54:18.510Z,101281.59
2023-01-22T07:54:58.702Z,101276.38
2023-01-22T07:55:38.767Z,101269.84
2023-01-22T07:56:19.727Z,101287.44
2023-01-22T07:56:59.759Z,101263.44
2023-01-22T07:57:39.723Z,101278.56